RAM262 FGSL-GMMN
Flight info
| Callsign | RAM262 |
|---|---|
| Flight time | 5h 5m |
| Altitude | 36000 |
| Route | ARDEX UA601 ETVOV UR603 LAG UR984 OG UR866 VOSNU/N0456F380 UR866 BULIS UM372 MAK UB11 MABAP UR722 FOBAC |
| Aircraft | B738/M-SDGIJ1LRWY/SB1 |
Departure
| Time | 2026-04-28 12:22 |
|---|---|
| Airport | Malabo International Airport (FGSL) |
Arrival
| Time | 2026-04-28 17:28 |
|---|---|
| Airport | Mohammed V International Airport (GMMN) |
| Time | Latitude | Longitude | Altitude | Speed | Heading |
|---|---|---|---|---|---|
| 2026-04-28 11:51 | 3.75840 | 8.71575 | 79 ft | 0 kts | 133° |
| 2026-04-28 12:13 | 3.75846 | 8.71569 | 79 ft | 2 kts | 133° |
| 2026-04-28 12:14 | 3.75856 | 8.71558 | 79 ft | 2 kts | 133° |
| 2026-04-28 12:14 | 3.75866 | 8.71547 | 79 ft | 2 kts | 133° |
| 2026-04-28 12:14 | 3.75876 | 8.71535 | 79 ft | 2 kts | 119° |
| 2026-04-28 12:14 | 3.75881 | 8.71521 | 79 ft | 2 kts | 93° |
| 2026-04-28 12:15 | 3.75879 | 8.71506 | 79 ft | 2 kts | 68° |
| 2026-04-28 12:15 | 3.75871 | 8.71493 | 79 ft | 2 kts | 44° |
| 2026-04-28 12:15 | 3.75860 | 8.71484 | 80 ft | 1 kts | 42° |
| 2026-04-28 12:15 | 3.75857 | 8.71482 | 80 ft | 0 kts | 44° |
| 2026-04-28 12:18 | 3.75858 | 8.71483 | 80 ft | 1 kts | 44° |
| 2026-04-28 12:18 | 3.75891 | 8.71512 | 79 ft | 10 kts | 42° |
| 2026-04-28 12:18 | 3.75939 | 8.71556 | 80 ft | 10 kts | 42° |
| 2026-04-28 12:18 | 3.75988 | 8.71592 | 78 ft | 6 kts | 6° |
| 2026-04-28 12:19 | 3.76037 | 8.71577 | 79 ft | 7 kts | 9° |
| 2026-04-28 12:19 | 3.76106 | 8.71628 | 77 ft | 16 kts | 42° |
| 2026-04-28 12:19 | 3.76200 | 8.71712 | 74 ft | 18 kts | 41° |
| 2026-04-28 12:19 | 3.76299 | 8.71800 | 71 ft | 19 kts | 42° |
| 2026-04-28 12:20 | 3.76385 | 8.71873 | 70 ft | 12 kts | 28° |
| 2026-04-28 12:20 | 3.76449 | 8.71856 | 71 ft | 8 kts | 313° |
| 2026-04-28 12:20 | 3.76477 | 8.71824 | 72 ft | 5 kts | 308° |
| 2026-04-28 12:20 | 3.76488 | 8.71785 | 74 ft | 6 kts | 277° |
| 2026-04-28 12:21 | 3.76500 | 8.71754 | 76 ft | 3 kts | 293° |
| 2026-04-28 12:21 | 3.76489 | 8.71727 | 78 ft | 3 kts | 222° |
| 2026-04-28 12:21 | 3.76486 | 8.71725 | 78 ft | 0 kts | 223° |
| 2026-04-28 12:21 | 3.76484 | 8.71724 | 78 ft | 2 kts | 223° |
| 2026-04-28 12:22 | 3.76363 | 8.71615 | 80 ft | 58 kts | 222° |
| 2026-04-28 12:22 | 3.75876 | 8.71180 | 101 ft | 125 kts | 222° |
| 2026-04-28 12:22 | 3.75081 | 8.70470 | 146 ft | 176 kts | 224° |
| 2026-04-28 12:22 | 3.74135 | 8.69636 | 750 ft | 184 kts | 223° |
| 2026-04-28 12:23 | 3.73197 | 8.68798 | 1384 ft | 195 kts | 223° |
| 2026-04-28 12:23 | 3.72140 | 8.67863 | 1920 ft | 209 kts | 223° |
| 2026-04-28 12:23 | 3.71007 | 8.66846 | 2373 ft | 226 kts | 223° |
| 2026-04-28 12:23 | 3.69791 | 8.65753 | 2822 ft | 244 kts | 224° |
| 2026-04-28 12:24 | 3.68758 | 8.64360 | 3319 ft | 258 kts | 250° |
| 2026-04-28 12:24 | 3.68452 | 8.62571 | 3772 ft | 271 kts | 278° |
| 2026-04-28 12:24 | 3.69037 | 8.60773 | 4472 ft | 274 kts | 301° |
| 2026-04-28 12:24 | 3.70030 | 8.59128 | 5157 ft | 281 kts | 303° |
| 2026-04-28 12:25 | 3.71045 | 8.57469 | 5914 ft | 285 kts | 303° |
| 2026-04-28 12:25 | 3.72072 | 8.55734 | 6642 ft | 290 kts | 303° |
| 2026-04-28 12:25 | 3.73094 | 8.53995 | 7356 ft | 295 kts | 303° |
| 2026-04-28 12:25 | 3.74139 | 8.52213 | 7996 ft | 301 kts | 304° |
| 2026-04-28 12:26 | 3.75205 | 8.50394 | 8730 ft | 304 kts | 304° |
| 2026-04-28 12:26 | 3.76278 | 8.48564 | 9410 ft | 309 kts | 305° |
| 2026-04-28 12:26 | 3.77382 | 8.46681 | 10108 ft | 313 kts | 305° |
| 2026-04-28 12:26 | 3.78513 | 8.44755 | 10435 ft | 332 kts | 304° |
| 2026-04-28 12:27 | 3.79699 | 8.42734 | 10874 ft | 345 kts | 304° |
| 2026-04-28 12:27 | 3.80964 | 8.40581 | 11230 ft | 361 kts | 304° |
| 2026-04-28 12:27 | 3.82253 | 8.38383 | 11533 ft | 377 kts | 304° |
| 2026-04-28 12:27 | 3.83619 | 8.36052 | 11878 ft | 391 kts | 304° |
| 2026-04-28 12:28 | 3.84999 | 8.33693 | 12455 ft | 397 kts | 303° |
| 2026-04-28 12:28 | 3.86398 | 8.31297 | 13082 ft | 401 kts | 303° |
| 2026-04-28 12:28 | 3.87807 | 8.28887 | 13771 ft | 402 kts | 303° |
| 2026-04-28 12:28 | 3.89230 | 8.26453 | 14376 ft | 407 kts | 303° |
| 2026-04-28 12:29 | 3.92111 | 8.21530 | 15711 ft | 412 kts | 302° |
| 2026-04-28 12:29 | 3.93556 | 8.19060 | 16302 ft | 416 kts | 302° |
| 2026-04-28 12:29 | 3.95021 | 8.16556 | 16887 ft | 420 kts | 302° |
| 2026-04-28 12:30 | 3.96508 | 8.14013 | 17511 ft | 422 kts | 302° |
| 2026-04-28 12:30 | 3.97996 | 8.11468 | 18033 ft | 427 kts | 302° |
| 2026-04-28 12:30 | 3.99519 | 8.08865 | 18642 ft | 428 kts | 302° |
| 2026-04-28 12:30 | 4.01013 | 8.06309 | 19195 ft | 431 kts | 302° |
| 2026-04-28 12:31 | 4.02551 | 8.03681 | 19721 ft | 435 kts | 302° |
| 2026-04-28 12:31 | 4.04070 | 8.01087 | 20292 ft | 437 kts | 302° |
| 2026-04-28 12:31 | 4.05619 | 7.98440 | 20762 ft | 441 kts | 302° |
| 2026-04-28 12:31 | 4.07176 | 7.95778 | 21311 ft | 443 kts | 302° |
| 2026-04-28 12:32 | 4.08737 | 7.93110 | 21824 ft | 445 kts | 302° |
| 2026-04-28 12:32 | 4.10300 | 7.90435 | 22290 ft | 448 kts | 302° |
| 2026-04-28 12:32 | 4.11862 | 7.87710 | 22763 ft | 451 kts | 299° |
| 2026-04-28 12:32 | 4.13230 | 7.84858 | 23227 ft | 455 kts | 295° |
| 2026-04-28 12:33 | 4.14473 | 7.81901 | 23721 ft | 458 kts | 293° |
| 2026-04-28 12:33 | 4.15660 | 7.78957 | 24154 ft | 461 kts | 293° |
| 2026-04-28 12:33 | 4.16862 | 7.75967 | 24602 ft | 463 kts | 293° |
| 2026-04-28 12:33 | 4.18074 | 7.72971 | 25071 ft | 465 kts | 293° |
| 2026-04-28 12:34 | 4.19293 | 7.69976 | 25472 ft | 468 kts | 293° |
| 2026-04-28 12:34 | 4.20523 | 7.66963 | 25910 ft | 470 kts | 293° |
| 2026-04-28 12:34 | 4.21777 | 7.63896 | 26325 ft | 473 kts | 293° |
| 2026-04-28 12:34 | 4.23019 | 7.60858 | 26712 ft | 476 kts | 293° |
| 2026-04-28 12:35 | 4.24281 | 7.57773 | 27110 ft | 478 kts | 293° |
| 2026-04-28 12:35 | 4.25540 | 7.54698 | 27486 ft | 481 kts | 293° |
| 2026-04-28 12:35 | 4.26804 | 7.51613 | 27901 ft | 482 kts | 293° |
| 2026-04-28 12:35 | 4.28087 | 7.48482 | 28265 ft | 485 kts | 293° |
| 2026-04-28 12:36 | 4.29369 | 7.45357 | 28616 ft | 487 kts | 293° |
| 2026-04-28 12:36 | 4.30642 | 7.42253 | 29184 ft | 484 kts | 293° |
| 2026-04-28 12:36 | 4.31928 | 7.39116 | 29648 ft | 484 kts | 293° |
| 2026-04-28 12:36 | 4.33201 | 7.35994 | 30151 ft | 483 kts | 292° |
| 2026-04-28 12:37 | 4.34463 | 7.32880 | 30676 ft | 481 kts | 292° |
| 2026-04-28 12:37 | 4.35707 | 7.29803 | 31132 ft | 480 kts | 292° |
| 2026-04-28 12:37 | 4.36959 | 7.26706 | 31565 ft | 480 kts | 292° |
| 2026-04-28 12:37 | 4.38205 | 7.23625 | 31982 ft | 479 kts | 292° |
| 2026-04-28 12:38 | 4.39476 | 7.20485 | 32448 ft | 478 kts | 292° |
| 2026-04-28 12:38 | 4.40733 | 7.17378 | 32915 ft | 476 kts | 292° |
| 2026-04-28 12:38 | 4.41964 | 7.14337 | 33346 ft | 476 kts | 292° |
| 2026-04-28 12:38 | 4.43215 | 7.11245 | 33816 ft | 474 kts | 292° |
| 2026-04-28 12:39 | 4.44447 | 7.08202 | 34231 ft | 474 kts | 292° |
| 2026-04-28 12:39 | 4.45680 | 7.05154 | 34608 ft | 474 kts | 292° |
| 2026-04-28 12:39 | 4.46908 | 7.02121 | 35044 ft | 472 kts | 292° |
| 2026-04-28 12:39 | 4.48144 | 6.99067 | 35451 ft | 471 kts | 292° |
| 2026-04-28 12:40 | 4.49382 | 6.96006 | 35826 ft | 471 kts | 291° |
| 2026-04-28 12:40 | 4.50602 | 6.92989 | 36158 ft | 471 kts | 291° |
| 2026-04-28 12:40 | 4.51837 | 6.89936 | 36388 ft | 473 kts | 292° |
| 2026-04-28 12:40 | 4.53070 | 6.86902 | 36656 ft | 473 kts | 291° |
| 2026-04-28 12:41 | 4.54321 | 6.83845 | 36936 ft | 474 kts | 292° |
| 2026-04-28 12:41 | 4.55578 | 6.80776 | 37300 ft | 472 kts | 292° |
| 2026-04-28 12:41 | 4.56811 | 6.77768 | 37663 ft | 470 kts | 291° |
| 2026-04-28 12:41 | 4.58043 | 6.74757 | 37899 ft | 470 kts | 291° |
| 2026-04-28 12:42 | 4.59294 | 6.71695 | 37892 ft | 473 kts | 291° |
| 2026-04-28 12:42 | 4.61777 | 6.65620 | 37886 ft | 471 kts | 291° |
| 2026-04-28 12:43 | 4.64260 | 6.59562 | 37886 ft | 471 kts | 292° |
| 2026-04-28 12:43 | 4.66756 | 6.53478 | 37885 ft | 473 kts | 292° |
| 2026-04-28 12:44 | 4.69244 | 6.47399 | 37888 ft | 473 kts | 292° |
| 2026-04-28 12:44 | 4.71737 | 6.41304 | 37885 ft | 473 kts | 292° |
| 2026-04-28 12:45 | 4.74231 | 6.35219 | 37884 ft | 472 kts | 292° |
| 2026-04-28 12:45 | 4.76728 | 6.29123 | 37883 ft | 472 kts | 292° |
| 2026-04-28 12:46 | 4.79219 | 6.23038 | 37883 ft | 473 kts | 292° |
| 2026-04-28 12:46 | 4.81717 | 6.16932 | 37882 ft | 474 kts | 292° |
| 2026-04-28 12:47 | 4.84202 | 6.10820 | 37879 ft | 473 kts | 292° |
| 2026-04-28 12:47 | 4.86647 | 6.04729 | 37884 ft | 472 kts | 292° |
| 2026-04-28 12:48 | 4.89093 | 5.98642 | 37886 ft | 473 kts | 292° |
| 2026-04-28 12:48 | 4.91552 | 5.92527 | 37884 ft | 473 kts | 292° |
| 2026-04-28 12:49 | 4.94013 | 5.86409 | 37886 ft | 474 kts | 292° |
| 2026-04-28 12:49 | 4.96475 | 5.80287 | 37889 ft | 473 kts | 292° |
| 2026-04-28 12:50 | 4.98924 | 5.74194 | 37893 ft | 474 kts | 292° |
| 2026-04-28 12:50 | 5.01394 | 5.68053 | 37889 ft | 474 kts | 292° |
| 2026-04-28 12:51 | 5.03859 | 5.61918 | 37885 ft | 474 kts | 292° |
| 2026-04-28 12:51 | 5.06320 | 5.55818 | 37883 ft | 473 kts | 292° |
| 2026-04-28 12:52 | 5.08803 | 5.49674 | 37889 ft | 474 kts | 292° |
| 2026-04-28 12:52 | 5.11277 | 5.43550 | 37879 ft | 473 kts | 292° |
| 2026-04-28 12:53 | 5.13751 | 5.37422 | 37883 ft | 474 kts | 292° |
| 2026-04-28 12:53 | 5.16226 | 5.31288 | 37867 ft | 472 kts | 292° |
| 2026-04-28 12:54 | 5.18707 | 5.25143 | 37875 ft | 474 kts | 292° |
| 2026-04-28 12:54 | 5.21177 | 5.19016 | 37875 ft | 473 kts | 292° |
| 2026-04-28 12:55 | 5.23639 | 5.12907 | 37871 ft | 472 kts | 292° |
| 2026-04-28 12:55 | 5.26105 | 5.06788 | 37866 ft | 472 kts | 292° |
| 2026-04-28 12:56 | 5.28566 | 5.00681 | 37863 ft | 471 kts | 292° |
| 2026-04-28 12:56 | 5.31031 | 4.94564 | 37861 ft | 471 kts | 292° |
| 2026-04-28 12:57 | 5.33487 | 4.88464 | 37865 ft | 471 kts | 292° |
| 2026-04-28 12:57 | 5.35920 | 4.82418 | 37862 ft | 470 kts | 292° |
| 2026-04-28 12:58 | 5.38379 | 4.76306 | 37865 ft | 471 kts | 292° |
| 2026-04-28 12:58 | 5.40828 | 4.70219 | 37865 ft | 469 kts | 292° |
| 2026-04-28 12:59 | 5.43278 | 4.64130 | 37864 ft | 470 kts | 292° |
| 2026-04-28 12:59 | 5.45712 | 4.58060 | 37861 ft | 470 kts | 292° |
| 2026-04-28 13:00 | 5.48132 | 4.51999 | 37860 ft | 469 kts | 292° |
| 2026-04-28 13:00 | 5.50575 | 4.45881 | 37863 ft | 469 kts | 292° |
| 2026-04-28 13:01 | 5.52991 | 4.39832 | 37866 ft | 469 kts | 292° |
| 2026-04-28 13:01 | 5.55423 | 4.33740 | 37868 ft | 469 kts | 292° |
| 2026-04-28 13:02 | 5.57846 | 4.27668 | 37870 ft | 468 kts | 292° |
| 2026-04-28 13:02 | 5.60273 | 4.21588 | 37869 ft | 469 kts | 292° |
| 2026-04-28 13:03 | 5.62690 | 4.15527 | 37876 ft | 468 kts | 292° |
| 2026-04-28 13:03 | 5.65106 | 4.09466 | 37882 ft | 468 kts | 292° |
| 2026-04-28 13:04 | 5.67535 | 4.03370 | 37884 ft | 469 kts | 292° |
| 2026-04-28 13:04 | 5.69945 | 3.97319 | 37882 ft | 466 kts | 292° |
| 2026-04-28 13:05 | 5.72361 | 3.91271 | 37885 ft | 467 kts | 293° |
| 2026-04-28 13:05 | 5.75505 | 3.85598 | 37877 ft | 464 kts | 312° |
| 2026-04-28 13:05 | 5.77856 | 3.83379 | 37899 ft | 462 kts | 323° |
| 2026-04-28 13:06 | 5.80486 | 3.81493 | 37882 ft | 461 kts | 329° |
| 2026-04-28 13:06 | 5.86085 | 3.78318 | 37879 ft | 460 kts | 334° |
| 2026-04-28 13:07 | 5.91780 | 3.75311 | 37870 ft | 460 kts | 334° |
| 2026-04-28 13:07 | 5.97465 | 3.72289 | 37866 ft | 461 kts | 333° |
| 2026-04-28 13:08 | 6.03132 | 3.69255 | 37868 ft | 459 kts | 333° |
| 2026-04-28 13:08 | 6.08802 | 3.66208 | 37863 ft | 457 kts | 333° |
| 2026-04-28 13:09 | 6.14441 | 3.63173 | 37859 ft | 458 kts | 333° |
| 2026-04-28 13:09 | 6.20090 | 3.60131 | 37854 ft | 456 kts | 333° |
| 2026-04-28 13:10 | 6.25680 | 3.57118 | 37858 ft | 457 kts | 333° |
| 2026-04-28 13:10 | 6.31316 | 3.54078 | 37853 ft | 455 kts | 333° |
| 2026-04-28 13:11 | 6.36873 | 3.51081 | 37851 ft | 455 kts | 333° |
| 2026-04-28 13:11 | 6.42453 | 3.48070 | 37852 ft | 454 kts | 333° |
| 2026-04-28 13:12 | 6.48080 | 3.45033 | 37850 ft | 453 kts | 333° |
| 2026-04-28 13:12 | 6.53652 | 3.42026 | 37852 ft | 453 kts | 333° |
| 2026-04-28 13:13 | 6.59224 | 3.39016 | 37849 ft | 452 kts | 333° |
| 2026-04-28 13:13 | 6.64783 | 3.36013 | 37849 ft | 453 kts | 333° |
| 2026-04-28 13:14 | 6.70235 | 3.32861 | 37847 ft | 453 kts | 326° |
| 2026-04-28 13:14 | 6.75264 | 3.28985 | 37843 ft | 452 kts | 322° |
| 2026-04-28 13:15 | 6.80116 | 3.24978 | 37846 ft | 453 kts | 321° |
| 2026-04-28 13:15 | 6.85000 | 3.20919 | 37855 ft | 452 kts | 321° |
| 2026-04-28 13:16 | 6.89838 | 3.16902 | 37853 ft | 451 kts | 321° |
| 2026-04-28 13:16 | 6.94705 | 3.12853 | 37855 ft | 451 kts | 321° |
| 2026-04-28 13:17 | 6.99531 | 3.08834 | 37852 ft | 451 kts | 321° |
| 2026-04-28 13:17 | 7.04381 | 3.04789 | 37852 ft | 450 kts | 321° |
| 2026-04-28 13:18 | 7.09220 | 3.00750 | 37855 ft | 450 kts | 321° |
| 2026-04-28 13:18 | 7.14054 | 2.96720 | 37855 ft | 450 kts | 321° |
| 2026-04-28 13:19 | 7.18872 | 2.92699 | 37851 ft | 450 kts | 321° |
| 2026-04-28 13:19 | 7.23710 | 2.88662 | 37854 ft | 449 kts | 321° |
| 2026-04-28 13:20 | 7.28525 | 2.84641 | 37856 ft | 450 kts | 321° |
| 2026-04-28 13:20 | 7.33351 | 2.80607 | 37860 ft | 450 kts | 321° |
| 2026-04-28 13:21 | 7.38231 | 2.76528 | 37865 ft | 450 kts | 321° |
| 2026-04-28 13:21 | 7.43065 | 2.72470 | 37874 ft | 450 kts | 321° |
| 2026-04-28 13:22 | 7.47860 | 2.68402 | 37872 ft | 450 kts | 321° |
| 2026-04-28 13:22 | 7.52686 | 2.64308 | 37872 ft | 450 kts | 321° |
| 2026-04-28 13:23 | 7.57460 | 2.60261 | 37866 ft | 449 kts | 321° |
| 2026-04-28 13:23 | 7.62252 | 2.56195 | 37863 ft | 448 kts | 321° |
| 2026-04-28 13:24 | 7.67024 | 2.52144 | 37855 ft | 448 kts | 320° |
| 2026-04-28 13:24 | 7.71793 | 2.48098 | 37850 ft | 447 kts | 320° |
| 2026-04-28 13:25 | 7.76596 | 2.44024 | 37846 ft | 447 kts | 320° |
| 2026-04-28 13:25 | 7.81349 | 2.39988 | 37849 ft | 446 kts | 320° |
| 2026-04-28 13:26 | 7.86118 | 2.35936 | 37859 ft | 444 kts | 320° |
| 2026-04-28 13:26 | 7.90835 | 2.31929 | 37866 ft | 445 kts | 320° |
| 2026-04-28 13:27 | 7.95593 | 2.27888 | 37871 ft | 445 kts | 320° |
| 2026-04-28 13:27 | 8.00332 | 2.23857 | 37872 ft | 445 kts | 320° |
| 2026-04-28 13:28 | 8.05085 | 2.19816 | 37870 ft | 446 kts | 320° |
| 2026-04-28 13:28 | 8.09831 | 2.15778 | 37872 ft | 448 kts | 320° |
| 2026-04-28 13:29 | 8.14604 | 2.11715 | 37873 ft | 445 kts | 320° |
| 2026-04-28 13:29 | 8.19329 | 2.07693 | 37875 ft | 444 kts | 320° |
| 2026-04-28 13:30 | 8.24064 | 2.03662 | 37877 ft | 446 kts | 319° |
| 2026-04-28 13:30 | 8.28801 | 1.99628 | 37879 ft | 446 kts | 319° |
| 2026-04-28 13:31 | 8.35977 | 1.93514 | 37880 ft | 447 kts | 319° |
| 2026-04-28 13:31 | 8.40749 | 1.89446 | 37879 ft | 447 kts | 319° |
| 2026-04-28 13:32 | 8.45477 | 1.85414 | 37875 ft | 446 kts | 320° |
| 2026-04-28 13:32 | 8.50225 | 1.81364 | 37878 ft | 446 kts | 319° |
| 2026-04-28 13:33 | 8.55007 | 1.77283 | 37881 ft | 446 kts | 319° |
| 2026-04-28 13:33 | 8.59765 | 1.73221 | 37884 ft | 446 kts | 319° |
| 2026-04-28 13:34 | 8.64508 | 1.69171 | 37883 ft | 446 kts | 319° |
| 2026-04-28 13:34 | 8.69255 | 1.65117 | 37883 ft | 446 kts | 319° |
| 2026-04-28 13:35 | 8.74046 | 1.61024 | 37883 ft | 445 kts | 319° |
| 2026-04-28 13:35 | 8.78782 | 1.56977 | 37883 ft | 446 kts | 320° |
| 2026-04-28 13:36 | 8.83543 | 1.52906 | 37881 ft | 446 kts | 320° |
| 2026-04-28 13:36 | 8.88298 | 1.48838 | 37886 ft | 444 kts | 320° |
| 2026-04-28 13:37 | 8.93020 | 1.44796 | 37890 ft | 445 kts | 319° |
| 2026-04-28 13:37 | 8.97737 | 1.40760 | 37899 ft | 445 kts | 319° |
| 2026-04-28 13:38 | 9.02508 | 1.36672 | 37900 ft | 446 kts | 319° |
| 2026-04-28 13:38 | 9.07230 | 1.32627 | 37909 ft | 445 kts | 319° |
| 2026-04-28 13:39 | 9.11952 | 1.28581 | 37919 ft | 444 kts | 319° |
| 2026-04-28 13:39 | 9.16647 | 1.24551 | 37926 ft | 444 kts | 319° |
| 2026-04-28 13:40 | 9.21372 | 1.20501 | 37934 ft | 444 kts | 319° |
| 2026-04-28 13:40 | 9.26076 | 1.16469 | 37934 ft | 443 kts | 319° |
| 2026-04-28 13:41 | 9.30785 | 1.12430 | 37921 ft | 444 kts | 319° |
| 2026-04-28 13:41 | 9.35522 | 1.08365 | 37910 ft | 443 kts | 319° |
| 2026-04-28 13:42 | 9.40220 | 1.04330 | 37902 ft | 443 kts | 319° |
| 2026-04-28 13:42 | 9.44908 | 1.00303 | 37892 ft | 442 kts | 319° |
| 2026-04-28 13:43 | 9.49607 | 0.96267 | 37890 ft | 443 kts | 319° |
| 2026-04-28 13:43 | 9.54322 | 0.92218 | 37891 ft | 443 kts | 319° |
| 2026-04-28 13:44 | 9.59027 | 0.88178 | 37888 ft | 444 kts | 319° |
| 2026-04-28 13:44 | 9.63725 | 0.84138 | 37886 ft | 443 kts | 319° |
| 2026-04-28 13:45 | 9.68455 | 0.80070 | 37877 ft | 444 kts | 319° |
| 2026-04-28 13:45 | 9.73187 | 0.75999 | 37863 ft | 443 kts | 319° |
| 2026-04-28 13:46 | 9.77924 | 0.71922 | 37850 ft | 444 kts | 319° |
| 2026-04-28 13:46 | 9.82638 | 0.67861 | 37837 ft | 444 kts | 319° |
| 2026-04-28 13:47 | 9.87339 | 0.63810 | 37832 ft | 443 kts | 319° |
| 2026-04-28 13:47 | 9.92048 | 0.59754 | 37827 ft | 445 kts | 319° |
| 2026-04-28 13:48 | 9.96749 | 0.55704 | 37828 ft | 444 kts | 319° |
| 2026-04-28 13:48 | 10.01470 | 0.51629 | 37826 ft | 445 kts | 319° |
| 2026-04-28 13:49 | 10.06188 | 0.47560 | 37833 ft | 445 kts | 319° |
| 2026-04-28 13:49 | 10.10907 | 0.43487 | 37833 ft | 443 kts | 319° |
| 2026-04-28 13:50 | 10.15588 | 0.39444 | 37833 ft | 443 kts | 319° |
| 2026-04-28 13:50 | 10.20319 | 0.35356 | 37835 ft | 444 kts | 319° |
| 2026-04-28 13:51 | 10.25018 | 0.31298 | 37835 ft | 445 kts | 319° |
| 2026-04-28 13:51 | 10.29752 | 0.27211 | 37839 ft | 444 kts | 319° |
| 2026-04-28 13:52 | 10.34434 | 0.23161 | 37836 ft | 444 kts | 318° |
| 2026-04-28 13:52 | 10.39159 | 0.19070 | 37848 ft | 444 kts | 319° |
| 2026-04-28 13:53 | 10.43843 | 0.15016 | 37850 ft | 443 kts | 319° |
| 2026-04-28 13:53 | 10.48537 | 0.10952 | 37857 ft | 443 kts | 319° |
| 2026-04-28 13:54 | 10.53241 | 0.06873 | 37861 ft | 443 kts | 319° |
| 2026-04-28 13:54 | 10.57909 | 0.02829 | 37869 ft | 443 kts | 318° |
| 2026-04-28 13:55 | 10.62600 | -0.01236 | 37866 ft | 443 kts | 318° |
| 2026-04-28 13:55 | 10.67306 | -0.05312 | 37869 ft | 443 kts | 319° |
| 2026-04-28 13:56 | 10.72022 | -0.09388 | 37865 ft | 441 kts | 319° |
| 2026-04-28 13:56 | 10.76701 | -0.13433 | 37864 ft | 442 kts | 319° |
| 2026-04-28 13:57 | 10.81378 | -0.17481 | 37862 ft | 441 kts | 319° |
| 2026-04-28 13:57 | 10.86060 | -0.21534 | 37854 ft | 441 kts | 318° |
| 2026-04-28 13:58 | 10.90787 | -0.25629 | 37852 ft | 440 kts | 318° |
| 2026-04-28 13:58 | 10.95463 | -0.29682 | 37854 ft | 441 kts | 318° |
| 2026-04-28 13:59 | 11.00189 | -0.33779 | 37855 ft | 439 kts | 318° |
| 2026-04-28 13:59 | 11.04860 | -0.37834 | 37859 ft | 440 kts | 318° |
| 2026-04-28 14:00 | 11.09493 | -0.41857 | 37862 ft | 439 kts | 319° |
| 2026-04-28 14:00 | 11.14150 | -0.45904 | 37860 ft | 440 kts | 319° |
| 2026-04-28 14:01 | 11.18850 | -0.49991 | 37864 ft | 440 kts | 319° |
| 2026-04-28 14:01 | 11.23502 | -0.54037 | 37864 ft | 439 kts | 319° |
| 2026-04-28 14:02 | 11.28151 | -0.58083 | 37864 ft | 439 kts | 318° |
| 2026-04-28 14:02 | 11.32817 | -0.62145 | 37864 ft | 438 kts | 319° |
| 2026-04-28 14:03 | 11.37445 | -0.66174 | 37868 ft | 438 kts | 318° |
| 2026-04-28 14:03 | 11.42083 | -0.70214 | 37862 ft | 438 kts | 318° |
| 2026-04-28 14:04 | 11.46712 | -0.74249 | 37868 ft | 439 kts | 318° |
| 2026-04-28 14:04 | 11.51390 | -0.78329 | 37866 ft | 438 kts | 318° |
| 2026-04-28 14:05 | 11.56005 | -0.82356 | 37871 ft | 438 kts | 318° |
| 2026-04-28 14:05 | 11.60666 | -0.86423 | 37871 ft | 439 kts | 318° |
| 2026-04-28 14:06 | 11.65312 | -0.90479 | 37871 ft | 438 kts | 318° |
| 2026-04-28 14:06 | 11.69939 | -0.94521 | 37871 ft | 437 kts | 318° |
| 2026-04-28 14:07 | 11.74542 | -0.98545 | 37867 ft | 437 kts | 318° |
| 2026-04-28 14:07 | 11.79178 | -1.02599 | 37869 ft | 437 kts | 318° |
| 2026-04-28 14:08 | 11.83779 | -1.06625 | 37869 ft | 437 kts | 318° |
| 2026-04-28 14:08 | 11.87626 | -1.09991 | 37870 ft | 437 kts | 318° |
| 2026-04-28 14:09 | 11.93047 | -1.14739 | 37872 ft | 438 kts | 318° |
| 2026-04-28 14:09 | 11.97649 | -1.18770 | 37873 ft | 437 kts | 318° |
| 2026-04-28 14:10 | 12.02282 | -1.22829 | 37879 ft | 437 kts | 317° |
| 2026-04-28 14:10 | 12.06903 | -1.26882 | 37875 ft | 437 kts | 317° |
| 2026-04-28 14:11 | 12.11513 | -1.30926 | 37875 ft | 434 kts | 317° |
| 2026-04-28 14:11 | 12.16115 | -1.34965 | 37876 ft | 435 kts | 317° |
| 2026-04-28 14:12 | 12.20693 | -1.38986 | 37874 ft | 434 kts | 317° |
| 2026-04-28 14:12 | 12.25296 | -1.43030 | 37879 ft | 435 kts | 317° |
| 2026-04-28 14:13 | 12.29884 | -1.47061 | 37880 ft | 433 kts | 317° |
| 2026-04-28 14:13 | 12.34623 | -1.50892 | 37874 ft | 435 kts | 325° |
| 2026-04-28 14:14 | 12.40034 | -1.53757 | 37873 ft | 439 kts | 333° |
| 2026-04-28 14:14 | 12.45666 | -1.56290 | 37867 ft | 438 kts | 334° |
| 2026-04-28 14:15 | 12.51242 | -1.58794 | 37864 ft | 438 kts | 333° |
| 2026-04-28 14:15 | 12.56815 | -1.61309 | 37862 ft | 438 kts | 333° |
| 2026-04-28 14:16 | 12.62423 | -1.63848 | 37862 ft | 438 kts | 333° |
| 2026-04-28 14:16 | 12.67993 | -1.66375 | 37863 ft | 438 kts | 333° |
| 2026-04-28 14:17 | 12.73601 | -1.68918 | 37861 ft | 438 kts | 333° |
| 2026-04-28 14:17 | 12.79187 | -1.71457 | 37860 ft | 438 kts | 333° |
| 2026-04-28 14:18 | 12.84778 | -1.73997 | 37861 ft | 437 kts | 333° |
| 2026-04-28 14:18 | 12.90379 | -1.76541 | 37862 ft | 438 kts | 333° |
| 2026-04-28 14:19 | 12.95981 | -1.79089 | 37863 ft | 438 kts | 333° |
| 2026-04-28 14:19 | 13.01562 | -1.81629 | 37872 ft | 437 kts | 333° |
| 2026-04-28 14:20 | 13.07142 | -1.84172 | 37881 ft | 437 kts | 333° |
| 2026-04-28 14:20 | 13.12726 | -1.86714 | 37884 ft | 437 kts | 333° |
| 2026-04-28 14:21 | 13.18297 | -1.89254 | 37887 ft | 437 kts | 332° |
| 2026-04-28 14:21 | 13.23879 | -1.91797 | 37883 ft | 437 kts | 332° |
| 2026-04-28 14:22 | 13.29451 | -1.94338 | 37877 ft | 438 kts | 333° |
| 2026-04-28 14:22 | 13.35059 | -1.96898 | 37874 ft | 438 kts | 333° |
| 2026-04-28 14:23 | 13.40662 | -1.99456 | 37872 ft | 438 kts | 332° |
| 2026-04-28 14:23 | 13.46211 | -2.01992 | 37870 ft | 437 kts | 332° |
| 2026-04-28 14:24 | 13.51785 | -2.04540 | 37870 ft | 437 kts | 333° |
| 2026-04-28 14:24 | 13.57341 | -2.07082 | 37866 ft | 438 kts | 332° |
| 2026-04-28 14:25 | 13.62984 | -2.09665 | 37866 ft | 438 kts | 332° |
| 2026-04-28 14:25 | 13.68550 | -2.12211 | 37864 ft | 438 kts | 332° |
| 2026-04-28 14:26 | 13.74152 | -2.14778 | 37864 ft | 437 kts | 332° |
| 2026-04-28 14:26 | 13.79699 | -2.17324 | 37864 ft | 437 kts | 332° |
| 2026-04-28 14:27 | 13.85283 | -2.19884 | 37864 ft | 437 kts | 332° |
| 2026-04-28 14:27 | 13.90843 | -2.22432 | 37861 ft | 437 kts | 332° |
| 2026-04-28 14:28 | 13.96440 | -2.25002 | 37863 ft | 436 kts | 332° |
| 2026-04-28 14:28 | 14.01998 | -2.27555 | 37858 ft | 437 kts | 332° |
| 2026-04-28 14:29 | 14.07603 | -2.30130 | 37857 ft | 438 kts | 332° |
| 2026-04-28 14:29 | 14.13175 | -2.32691 | 37851 ft | 438 kts | 332° |
| 2026-04-28 14:30 | 14.18749 | -2.35256 | 37846 ft | 438 kts | 332° |
| 2026-04-28 14:30 | 14.24315 | -2.37815 | 37845 ft | 437 kts | 332° |
| 2026-04-28 14:31 | 14.29912 | -2.40392 | 37841 ft | 438 kts | 332° |
| 2026-04-28 14:31 | 14.35469 | -2.42953 | 37839 ft | 438 kts | 332° |
| 2026-04-28 14:32 | 14.41058 | -2.45539 | 37839 ft | 438 kts | 332° |
| 2026-04-28 14:32 | 14.46621 | -2.48104 | 37842 ft | 438 kts | 332° |
| 2026-04-28 14:33 | 14.52211 | -2.50679 | 37843 ft | 439 kts | 332° |
| 2026-04-28 14:33 | 14.57764 | -2.53240 | 37846 ft | 438 kts | 332° |
| 2026-04-28 14:34 | 14.66151 | -2.57111 | 37852 ft | 438 kts | 332° |
| 2026-04-28 14:35 | 14.71697 | -2.59674 | 37851 ft | 437 kts | 332° |
| 2026-04-28 14:35 | 14.77251 | -2.62243 | 37853 ft | 437 kts | 332° |
| 2026-04-28 14:36 | 14.82844 | -2.64832 | 37855 ft | 438 kts | 332° |
| 2026-04-28 14:36 | 14.88410 | -2.67409 | 37858 ft | 438 kts | 332° |
| 2026-04-28 14:37 | 14.93981 | -2.69988 | 37868 ft | 438 kts | 332° |
| 2026-04-28 14:37 | 14.99569 | -2.72582 | 37872 ft | 438 kts | 332° |
| 2026-04-28 14:38 | 15.05123 | -2.75160 | 37873 ft | 437 kts | 332° |
| 2026-04-28 14:38 | 15.10696 | -2.77744 | 37877 ft | 438 kts | 332° |
| 2026-04-28 14:39 | 15.16257 | -2.80324 | 37883 ft | 437 kts | 332° |
| 2026-04-28 14:39 | 15.21855 | -2.82928 | 37884 ft | 438 kts | 332° |
| 2026-04-28 14:40 | 15.27399 | -2.85509 | 37879 ft | 437 kts | 332° |
| 2026-04-28 14:40 | 15.32996 | -2.88118 | 37878 ft | 438 kts | 332° |
| 2026-04-28 14:41 | 15.38518 | -2.90689 | 37874 ft | 437 kts | 332° |
| 2026-04-28 14:41 | 15.44080 | -2.93281 | 37875 ft | 438 kts | 331° |
| 2026-04-28 14:42 | 15.49705 | -2.95903 | 37873 ft | 439 kts | 332° |
| 2026-04-28 14:42 | 15.55284 | -2.98507 | 37872 ft | 439 kts | 332° |
| 2026-04-28 14:43 | 15.60853 | -3.01107 | 37870 ft | 438 kts | 331° |
| 2026-04-28 14:43 | 15.66399 | -3.03698 | 37865 ft | 437 kts | 331° |
| 2026-04-28 14:44 | 15.71965 | -3.06300 | 37862 ft | 438 kts | 331° |
| 2026-04-28 14:44 | 15.77537 | -3.08907 | 37863 ft | 438 kts | 331° |
| 2026-04-28 14:45 | 15.83140 | -3.11529 | 37861 ft | 438 kts | 331° |
| 2026-04-28 14:45 | 15.88691 | -3.14128 | 37864 ft | 438 kts | 331° |
| 2026-04-28 14:46 | 15.94290 | -3.16752 | 37864 ft | 439 kts | 331° |
| 2026-04-28 14:46 | 15.99814 | -3.19342 | 37866 ft | 439 kts | 331° |
| 2026-04-28 14:47 | 16.05447 | -3.21984 | 37862 ft | 439 kts | 331° |
| 2026-04-28 14:47 | 16.11004 | -3.24593 | 37866 ft | 440 kts | 331° |
| 2026-04-28 14:48 | 16.16606 | -3.27223 | 37863 ft | 438 kts | 331° |
| 2026-04-28 14:48 | 16.22195 | -3.29851 | 37866 ft | 439 kts | 331° |
| 2026-04-28 14:49 | 16.27781 | -3.32480 | 37864 ft | 439 kts | 330° |
| 2026-04-28 14:49 | 16.33354 | -3.35103 | 37867 ft | 439 kts | 330° |
| 2026-04-28 14:50 | 16.38960 | -3.37742 | 37866 ft | 439 kts | 330° |
| 2026-04-28 14:50 | 16.44504 | -3.40353 | 37871 ft | 438 kts | 330° |
| 2026-04-28 14:51 | 16.50114 | -3.42998 | 37875 ft | 439 kts | 330° |
| 2026-04-28 14:51 | 16.55660 | -3.45614 | 37879 ft | 438 kts | 330° |
| 2026-04-28 14:52 | 16.61211 | -3.48235 | 37879 ft | 438 kts | 330° |
| 2026-04-28 14:52 | 16.66790 | -3.50871 | 37881 ft | 439 kts | 330° |
| 2026-04-28 14:53 | 16.72350 | -3.53500 | 37883 ft | 440 kts | 330° |
| 2026-04-28 14:53 | 16.77965 | -3.56156 | 37883 ft | 440 kts | 330° |
| 2026-04-28 14:54 | 16.83537 | -3.58791 | 37889 ft | 438 kts | 330° |
| 2026-04-28 14:54 | 16.89099 | -3.61424 | 37894 ft | 438 kts | 330° |
| 2026-04-28 14:55 | 16.94660 | -3.64058 | 37896 ft | 437 kts | 329° |
| 2026-04-28 14:55 | 17.00188 | -3.66680 | 37899 ft | 437 kts | 329° |
| 2026-04-28 14:56 | 17.05740 | -3.69316 | 37902 ft | 438 kts | 329° |
| 2026-04-28 14:56 | 17.11284 | -3.71948 | 37902 ft | 437 kts | 329° |
| 2026-04-28 14:57 | 17.16843 | -3.74589 | 37901 ft | 438 kts | 329° |
| 2026-04-28 14:57 | 17.22418 | -3.77240 | 37899 ft | 438 kts | 329° |
| 2026-04-28 14:58 | 17.27966 | -3.79876 | 37897 ft | 436 kts | 329° |
| 2026-04-28 14:58 | 17.33487 | -3.82505 | 37896 ft | 436 kts | 329° |
| 2026-04-28 14:59 | 17.39010 | -3.85140 | 37892 ft | 435 kts | 329° |
| 2026-04-28 14:59 | 17.44528 | -3.87770 | 37889 ft | 436 kts | 329° |
| 2026-04-28 15:00 | 17.50063 | -3.90409 | 37881 ft | 435 kts | 328° |
| 2026-04-28 15:00 | 17.55577 | -3.93043 | 37879 ft | 437 kts | 328° |
| 2026-04-28 15:01 | 17.61097 | -3.95678 | 37878 ft | 435 kts | 328° |
| 2026-04-28 15:01 | 17.66624 | -3.98317 | 37871 ft | 435 kts | 328° |
| 2026-04-28 15:02 | 17.72129 | -4.00954 | 37866 ft | 435 kts | 328° |
| 2026-04-28 15:02 | 17.77645 | -4.03592 | 37863 ft | 433 kts | 328° |
| 2026-04-28 15:03 | 17.83162 | -4.06237 | 37872 ft | 435 kts | 328° |
| 2026-04-28 15:03 | 17.88653 | -4.08867 | 37875 ft | 434 kts | 328° |
| 2026-04-28 15:04 | 17.94161 | -4.11505 | 37872 ft | 433 kts | 328° |
| 2026-04-28 15:04 | 17.99658 | -4.14147 | 37872 ft | 435 kts | 328° |
| 2026-04-28 15:05 | 18.05148 | -4.16780 | 37870 ft | 433 kts | 328° |
| 2026-04-28 15:05 | 18.10647 | -4.19426 | 37868 ft | 433 kts | 328° |
| 2026-04-28 15:06 | 18.16155 | -4.22076 | 37871 ft | 433 kts | 328° |
| 2026-04-28 15:06 | 18.21634 | -4.24713 | 37865 ft | 434 kts | 328° |
| 2026-04-28 15:07 | 18.27110 | -4.27350 | 37857 ft | 433 kts | 328° |
| 2026-04-28 15:07 | 18.32642 | -4.30014 | 37852 ft | 435 kts | 328° |
| 2026-04-28 15:08 | 18.38127 | -4.32660 | 37852 ft | 432 kts | 328° |
| 2026-04-28 15:08 | 18.43567 | -4.35283 | 37854 ft | 431 kts | 327° |
| 2026-04-28 15:09 | 18.49068 | -4.37945 | 37851 ft | 433 kts | 328° |
| 2026-04-28 15:09 | 18.54518 | -4.40577 | 37855 ft | 431 kts | 327° |
| 2026-04-28 15:10 | 18.60000 | -4.43225 | 37857 ft | 433 kts | 327° |
| 2026-04-28 15:10 | 18.65504 | -4.45889 | 37858 ft | 434 kts | 327° |
| 2026-04-28 15:11 | 18.70997 | -4.48548 | 37860 ft | 433 kts | 327° |
| 2026-04-28 15:11 | 18.76508 | -4.51220 | 37872 ft | 434 kts | 327° |
| 2026-04-28 15:12 | 18.81973 | -4.53870 | 37874 ft | 433 kts | 327° |
| 2026-04-28 15:12 | 18.87483 | -4.56544 | 37871 ft | 432 kts | 327° |
| 2026-04-28 15:13 | 18.92957 | -4.59204 | 37876 ft | 433 kts | 327° |
| 2026-04-28 15:13 | 18.98419 | -4.61859 | 37879 ft | 434 kts | 327° |
| 2026-04-28 15:14 | 19.03917 | -4.64534 | 37878 ft | 434 kts | 327° |
| 2026-04-28 15:14 | 19.09437 | -4.67218 | 37878 ft | 433 kts | 327° |
| 2026-04-28 15:15 | 19.14910 | -4.69883 | 37872 ft | 433 kts | 326° |
| 2026-04-28 15:15 | 19.20409 | -4.72567 | 37872 ft | 436 kts | 326° |
| 2026-04-28 15:16 | 19.25904 | -4.75245 | 37869 ft | 434 kts | 326° |
| 2026-04-28 15:16 | 19.31401 | -4.77927 | 37866 ft | 434 kts | 326° |
| 2026-04-28 15:17 | 19.36908 | -4.80621 | 37867 ft | 433 kts | 326° |
| 2026-04-28 15:17 | 19.42365 | -4.83293 | 37862 ft | 434 kts | 326° |
| 2026-04-28 15:18 | 19.47877 | -4.85992 | 37854 ft | 433 kts | 326° |
| 2026-04-28 15:18 | 19.53359 | -4.88676 | 37850 ft | 433 kts | 326° |
| 2026-04-28 15:19 | 19.58847 | -4.91365 | 37848 ft | 434 kts | 326° |
| 2026-04-28 15:19 | 19.64351 | -4.94065 | 37846 ft | 435 kts | 326° |
| 2026-04-28 15:20 | 19.69839 | -4.96757 | 37844 ft | 434 kts | 326° |
| 2026-04-28 15:20 | 19.75318 | -4.99450 | 37840 ft | 434 kts | 326° |
| 2026-04-28 15:21 | 19.80831 | -5.02161 | 37831 ft | 432 kts | 326° |
| 2026-04-28 15:21 | 19.86278 | -5.04840 | 37834 ft | 433 kts | 326° |
| 2026-04-28 15:22 | 19.91780 | -5.07554 | 37829 ft | 433 kts | 326° |
| 2026-04-28 15:22 | 19.97238 | -5.10240 | 37832 ft | 432 kts | 326° |
| 2026-04-28 15:23 | 20.02745 | -5.12960 | 37833 ft | 433 kts | 325° |
| 2026-04-28 15:23 | 20.08221 | -5.15659 | 37833 ft | 434 kts | 325° |
| 2026-04-28 15:24 | 20.13698 | -5.18364 | 37834 ft | 431 kts | 325° |
| 2026-04-28 15:24 | 20.19132 | -5.21049 | 37837 ft | 433 kts | 325° |
| 2026-04-28 15:25 | 20.24597 | -5.23758 | 37836 ft | 433 kts | 325° |
| 2026-04-28 15:25 | 20.30046 | -5.26448 | 37835 ft | 430 kts | 325° |
| 2026-04-28 15:26 | 20.35521 | -5.29171 | 37834 ft | 434 kts | 325° |
| 2026-04-28 15:26 | 20.41003 | -5.31888 | 37832 ft | 431 kts | 325° |
| 2026-04-28 15:27 | 20.46421 | -5.34577 | 37829 ft | 430 kts | 325° |
| 2026-04-28 15:27 | 20.51844 | -5.37270 | 37827 ft | 430 kts | 325° |
| 2026-04-28 15:28 | 20.57310 | -5.39990 | 37821 ft | 432 kts | 324° |
| 2026-04-28 15:28 | 20.62740 | -5.42689 | 37817 ft | 428 kts | 325° |
| 2026-04-28 15:29 | 20.68151 | -5.45384 | 37811 ft | 429 kts | 324° |
| 2026-04-28 15:29 | 20.73555 | -5.48079 | 37809 ft | 430 kts | 324° |
| 2026-04-28 15:30 | 20.78975 | -5.50782 | 37805 ft | 430 kts | 324° |
| 2026-04-28 15:30 | 20.84403 | -5.53487 | 37802 ft | 428 kts | 324° |
| 2026-04-28 15:31 | 20.89804 | -5.56185 | 37798 ft | 431 kts | 324° |
| 2026-04-28 15:31 | 20.95259 | -5.58912 | 37794 ft | 428 kts | 324° |
| 2026-04-28 15:32 | 21.00673 | -5.61615 | 37795 ft | 431 kts | 324° |
| 2026-04-28 15:32 | 21.06070 | -5.64312 | 37793 ft | 426 kts | 324° |
| 2026-04-28 15:33 | 21.11452 | -5.67012 | 37795 ft | 429 kts | 323° |
| 2026-04-28 15:33 | 21.16881 | -5.69735 | 37800 ft | 427 kts | 324° |
| 2026-04-28 15:34 | 21.22265 | -5.72432 | 37802 ft | 425 kts | 324° |
| 2026-04-28 15:34 | 21.27622 | -5.75130 | 37810 ft | 429 kts | 324° |
| 2026-04-28 15:35 | 21.33025 | -5.77844 | 37818 ft | 426 kts | 323° |
| 2026-04-28 15:35 | 21.41104 | -5.81912 | 37824 ft | 430 kts | 323° |
| 2026-04-28 15:36 | 21.46519 | -5.84636 | 37827 ft | 427 kts | 323° |
| 2026-04-28 15:36 | 21.51891 | -5.87343 | 37827 ft | 426 kts | 323° |
| 2026-04-28 15:37 | 21.57243 | -5.90036 | 37828 ft | 425 kts | 323° |
| 2026-04-28 15:37 | 21.61746 | -5.92316 | 37828 ft | 428 kts | 323° |
| 2026-04-28 15:38 | 21.68041 | -5.95494 | 37829 ft | 425 kts | 323° |
| 2026-04-28 15:38 | 21.73386 | -5.98198 | 37837 ft | 426 kts | 323° |
| 2026-04-28 15:39 | 21.78774 | -6.00928 | 37848 ft | 426 kts | 323° |
| 2026-04-28 15:39 | 21.84147 | -6.03644 | 37845 ft | 425 kts | 323° |
| 2026-04-28 15:40 | 21.89490 | -6.06353 | 37839 ft | 426 kts | 323° |
| 2026-04-28 15:40 | 21.94886 | -6.09093 | 37840 ft | 425 kts | 323° |
| 2026-04-28 15:41 | 22.00225 | -6.11802 | 37844 ft | 423 kts | 323° |
| 2026-04-28 15:41 | 22.05582 | -6.14529 | 37847 ft | 426 kts | 323° |
| 2026-04-28 15:42 | 22.10929 | -6.17249 | 37837 ft | 425 kts | 323° |
| 2026-04-28 15:42 | 22.16301 | -6.19982 | 37846 ft | 427 kts | 323° |
| 2026-04-28 15:43 | 22.21681 | -6.22722 | 37844 ft | 425 kts | 323° |
| 2026-04-28 15:43 | 22.27017 | -6.25440 | 37848 ft | 424 kts | 323° |
| 2026-04-28 15:44 | 22.32384 | -6.28188 | 37853 ft | 428 kts | 323° |
| 2026-04-28 15:44 | 22.37732 | -6.30904 | 37848 ft | 423 kts | 323° |
| 2026-04-28 15:45 | 22.43087 | -6.33648 | 37847 ft | 427 kts | 322° |
| 2026-04-28 15:45 | 22.48436 | -6.36383 | 37850 ft | 425 kts | 323° |
| 2026-04-28 15:46 | 22.53789 | -6.39128 | 37852 ft | 425 kts | 323° |
| 2026-04-28 15:46 | 22.59114 | -6.41856 | 37849 ft | 425 kts | 323° |
| 2026-04-28 15:47 | 22.64465 | -6.44601 | 37856 ft | 425 kts | 322° |
| 2026-04-28 15:47 | 22.69817 | -6.47356 | 37860 ft | 426 kts | 322° |
| 2026-04-28 15:48 | 22.75145 | -6.50079 | 37855 ft | 418 kts | 322° |
| 2026-04-28 15:48 | 22.80411 | -6.52797 | 37863 ft | 424 kts | 322° |
| 2026-04-28 15:49 | 22.85767 | -6.55558 | 37862 ft | 424 kts | 322° |
| 2026-04-28 15:49 | 22.91064 | -6.58275 | 37872 ft | 421 kts | 322° |
| 2026-04-28 15:50 | 22.96382 | -6.61022 | 37865 ft | 423 kts | 322° |
| 2026-04-28 15:50 | 23.01670 | -6.63746 | 37863 ft | 419 kts | 322° |
| 2026-04-28 15:51 | 23.06975 | -6.66498 | 37859 ft | 423 kts | 322° |
| 2026-04-28 15:51 | 23.12246 | -6.69212 | 37855 ft | 420 kts | 322° |
| 2026-04-28 15:52 | 23.17591 | -6.71983 | 37848 ft | 424 kts | 322° |
| 2026-04-28 15:52 | 23.22876 | -6.74715 | 37846 ft | 418 kts | 322° |
| 2026-04-28 15:53 | 23.28150 | -6.77453 | 37850 ft | 425 kts | 322° |
| 2026-04-28 15:53 | 23.33510 | -6.80237 | 37848 ft | 423 kts | 322° |
| 2026-04-28 15:54 | 23.38812 | -6.82974 | 37850 ft | 421 kts | 322° |
| 2026-04-28 15:54 | 23.44118 | -6.85744 | 37849 ft | 423 kts | 322° |
| 2026-04-28 15:55 | 23.49421 | -6.88499 | 37850 ft | 424 kts | 322° |
| 2026-04-28 15:55 | 23.54748 | -6.91273 | 37849 ft | 424 kts | 322° |
| 2026-04-28 15:56 | 23.60066 | -6.94037 | 37849 ft | 423 kts | 322° |
| 2026-04-28 15:56 | 23.65397 | -6.96826 | 37849 ft | 425 kts | 322° |
| 2026-04-28 15:57 | 23.70709 | -6.99599 | 37850 ft | 425 kts | 322° |
| 2026-04-28 15:57 | 23.76057 | -7.02391 | 37847 ft | 423 kts | 322° |
| 2026-04-28 15:58 | 23.81389 | -7.05187 | 37847 ft | 425 kts | 322° |
| 2026-04-28 15:58 | 23.86710 | -7.07972 | 37860 ft | 424 kts | 322° |
| 2026-04-28 15:59 | 23.91173 | -7.10318 | 37851 ft | 426 kts | 323° |
| 2026-04-28 15:59 | 23.97371 | -7.13566 | 37863 ft | 424 kts | 323° |
| 2026-04-28 16:00 | 24.02721 | -7.16381 | 37876 ft | 426 kts | 323° |
| 2026-04-28 16:00 | 24.08069 | -7.19194 | 37879 ft | 426 kts | 323° |
| 2026-04-28 16:01 | 24.13423 | -7.22009 | 37883 ft | 425 kts | 323° |
| 2026-04-28 16:01 | 24.18750 | -7.24813 | 37880 ft | 426 kts | 323° |
| 2026-04-28 16:02 | 24.24073 | -7.27618 | 37884 ft | 426 kts | 323° |
| 2026-04-28 16:02 | 24.29420 | -7.30442 | 37887 ft | 429 kts | 323° |
| 2026-04-28 16:03 | 24.34797 | -7.33280 | 37888 ft | 427 kts | 323° |
| 2026-04-28 16:03 | 24.40153 | -7.36110 | 37890 ft | 427 kts | 323° |
| 2026-04-28 16:04 | 24.45533 | -7.38957 | 37890 ft | 426 kts | 324° |
| 2026-04-28 16:04 | 24.49967 | -7.41306 | 37892 ft | 428 kts | 324° |
| 2026-04-28 16:05 | 24.56216 | -7.44617 | 37889 ft | 425 kts | 324° |
| 2026-04-28 16:05 | 24.61557 | -7.47454 | 37902 ft | 427 kts | 324° |
| 2026-04-28 16:06 | 24.66879 | -7.50281 | 37895 ft | 427 kts | 324° |
| 2026-04-28 16:06 | 24.72261 | -7.53140 | 37898 ft | 425 kts | 324° |
| 2026-04-28 16:07 | 24.77608 | -7.55988 | 37897 ft | 427 kts | 324° |
| 2026-04-28 16:08 | 24.85652 | -7.60272 | 37905 ft | 425 kts | 325° |
| 2026-04-28 16:08 | 24.90982 | -7.63115 | 37896 ft | 425 kts | 325° |
| 2026-04-28 16:09 | 24.98986 | -7.67392 | 37917 ft | 426 kts | 325° |
| 2026-04-28 16:10 | 25.07035 | -7.71698 | 37910 ft | 428 kts | 325° |
| 2026-04-28 16:10 | 25.15024 | -7.75972 | 37913 ft | 424 kts | 325° |
| 2026-04-28 16:11 | 25.25727 | -7.81720 | 37913 ft | 426 kts | 325° |
| 2026-04-28 16:12 | 25.33785 | -7.86049 | 37918 ft | 427 kts | 325° |
| 2026-04-28 16:13 | 25.41793 | -7.90356 | 37920 ft | 425 kts | 326° |
| 2026-04-28 16:14 | 25.52494 | -7.96129 | 37906 ft | 429 kts | 326° |
| 2026-04-28 16:15 | 25.63239 | -8.01932 | 37894 ft | 429 kts | 326° |
| 2026-04-28 16:15 | 25.68600 | -8.04831 | 37896 ft | 429 kts | 326° |
| 2026-04-28 16:16 | 25.76646 | -8.09191 | 37896 ft | 427 kts | 326° |
| 2026-04-28 16:17 | 25.84709 | -8.13568 | 37892 ft | 429 kts | 326° |
| 2026-04-28 16:17 | 25.90084 | -8.16487 | 37889 ft | 430 kts | 326° |
| 2026-04-28 16:18 | 25.95445 | -8.19403 | 37889 ft | 429 kts | 326° |
| 2026-04-28 16:18 | 26.00830 | -8.22335 | 37889 ft | 430 kts | 327° |
| 2026-04-28 16:19 | 26.06202 | -8.25263 | 37894 ft | 429 kts | 327° |
| 2026-04-28 16:19 | 26.11539 | -8.28176 | 37888 ft | 429 kts | 326° |
| 2026-04-28 16:20 | 26.16924 | -8.31117 | 37887 ft | 428 kts | 326° |
| 2026-04-28 16:20 | 26.22272 | -8.34042 | 37893 ft | 430 kts | 327° |
| 2026-04-28 16:21 | 26.27683 | -8.37002 | 37891 ft | 433 kts | 327° |
| 2026-04-28 16:21 | 26.33068 | -8.39947 | 37896 ft | 430 kts | 327° |
| 2026-04-28 16:22 | 26.38440 | -8.42894 | 37911 ft | 431 kts | 327° |
| 2026-04-28 16:22 | 26.43799 | -8.45833 | 37907 ft | 430 kts | 327° |
| 2026-04-28 16:23 | 26.49187 | -8.48794 | 37908 ft | 429 kts | 327° |
| 2026-04-28 16:23 | 26.54537 | -8.51737 | 37909 ft | 431 kts | 327° |
| 2026-04-28 16:24 | 26.59948 | -8.54716 | 37905 ft | 431 kts | 327° |
| 2026-04-28 16:24 | 26.65327 | -8.57680 | 37902 ft | 431 kts | 327° |
| 2026-04-28 16:25 | 26.70727 | -8.60663 | 37905 ft | 432 kts | 327° |
| 2026-04-28 16:25 | 26.76094 | -8.63623 | 37902 ft | 431 kts | 327° |
| 2026-04-28 16:26 | 26.81496 | -8.66610 | 37906 ft | 430 kts | 326° |
| 2026-04-28 16:26 | 26.86875 | -8.69588 | 37906 ft | 430 kts | 326° |
| 2026-04-28 16:27 | 26.92258 | -8.72573 | 37908 ft | 431 kts | 326° |
| 2026-04-28 16:28 | 27.00372 | -8.77074 | 37904 ft | 430 kts | 326° |
| 2026-04-28 16:28 | 27.05735 | -8.80056 | 37903 ft | 431 kts | 326° |
| 2026-04-28 16:29 | 27.13845 | -8.84567 | 37894 ft | 432 kts | 327° |
| 2026-04-28 16:30 | 27.21923 | -8.89067 | 37897 ft | 431 kts | 327° |
| 2026-04-28 16:30 | 27.27295 | -8.92066 | 37898 ft | 432 kts | 326° |
| 2026-04-28 16:31 | 27.32716 | -8.95093 | 37896 ft | 431 kts | 327° |
| 2026-04-28 16:31 | 27.38084 | -8.98095 | 37897 ft | 432 kts | 326° |
| 2026-04-28 16:32 | 27.43448 | -9.01099 | 37897 ft | 432 kts | 326° |
| 2026-04-28 16:32 | 27.51561 | -9.05646 | 37902 ft | 432 kts | 327° |
| 2026-04-28 16:33 | 27.55129 | -9.07649 | 37904 ft | 431 kts | 327° |
| 2026-04-28 16:33 | 27.62386 | -9.11601 | 37907 ft | 435 kts | 331° |
| 2026-04-28 16:34 | 27.65272 | -9.12664 | 37902 ft | 444 kts | 342° |
| 2026-04-28 16:34 | 27.68371 | -9.13013 | 37913 ft | 453 kts | 354° |
| 2026-04-28 16:34 | 27.74752 | -9.12211 | 37907 ft | 465 kts | 5° |
| 2026-04-28 16:35 | 27.81105 | -9.10622 | 37905 ft | 467 kts | 7° |
| 2026-04-28 16:35 | 27.87429 | -9.08968 | 37907 ft | 466 kts | 7° |
| 2026-04-28 16:36 | 27.93777 | -9.07326 | 37908 ft | 468 kts | 7° |
| 2026-04-28 16:36 | 28.00102 | -9.05701 | 37912 ft | 464 kts | 7° |
| 2026-04-28 16:37 | 28.06418 | -9.04084 | 37908 ft | 464 kts | 7° |
| 2026-04-28 16:38 | 28.15868 | -9.01669 | 37887 ft | 464 kts | 7° |
| 2026-04-28 16:38 | 28.22187 | -9.00051 | 37886 ft | 463 kts | 7° |
| 2026-04-28 16:39 | 28.28472 | -8.98441 | 37890 ft | 465 kts | 7° |
| 2026-04-28 16:39 | 28.34780 | -8.96824 | 37886 ft | 464 kts | 7° |
| 2026-04-28 16:40 | 28.41090 | -8.95205 | 37879 ft | 465 kts | 7° |
| 2026-04-28 16:40 | 28.47411 | -8.93580 | 37872 ft | 463 kts | 7° |
| 2026-04-28 16:41 | 28.53671 | -8.91968 | 37866 ft | 461 kts | 7° |
| 2026-04-28 16:41 | 28.59918 | -8.90360 | 37862 ft | 461 kts | 7° |
| 2026-04-28 16:42 | 28.66225 | -8.88734 | 37862 ft | 461 kts | 7° |
| 2026-04-28 16:42 | 28.72486 | -8.87118 | 37855 ft | 460 kts | 7° |
| 2026-04-28 16:43 | 28.78744 | -8.85498 | 37849 ft | 461 kts | 7° |
| 2026-04-28 16:43 | 28.84965 | -8.83888 | 37858 ft | 460 kts | 7° |
| 2026-04-28 16:44 | 28.91245 | -8.82260 | 37861 ft | 460 kts | 7° |
| 2026-04-28 16:44 | 28.97520 | -8.80631 | 37851 ft | 461 kts | 7° |
| 2026-04-28 16:45 | 29.03764 | -8.79008 | 37845 ft | 459 kts | 7° |
| 2026-04-28 16:45 | 29.10001 | -8.77383 | 37850 ft | 461 kts | 7° |
| 2026-04-28 16:46 | 29.16247 | -8.75753 | 37877 ft | 460 kts | 7° |
| 2026-04-28 16:46 | 29.22563 | -8.74104 | 37881 ft | 461 kts | 7° |
| 2026-04-28 16:47 | 29.28829 | -8.72463 | 37892 ft | 460 kts | 7° |
| 2026-04-28 16:47 | 29.35054 | -8.70833 | 37916 ft | 461 kts | 7° |
| 2026-04-28 16:48 | 29.41328 | -8.69187 | 37912 ft | 460 kts | 7° |
| 2026-04-28 16:48 | 29.47585 | -8.67545 | 37912 ft | 461 kts | 7° |
| 2026-04-28 16:49 | 29.53827 | -8.65905 | 37941 ft | 462 kts | 7° |
| 2026-04-28 16:49 | 29.60095 | -8.64254 | 37961 ft | 460 kts | 7° |
| 2026-04-28 16:50 | 29.66345 | -8.62608 | 37970 ft | 463 kts | 7° |
| 2026-04-28 16:50 | 29.72651 | -8.60942 | 37987 ft | 462 kts | 7° |
| 2026-04-28 16:51 | 29.78917 | -8.59287 | 38009 ft | 463 kts | 7° |
| 2026-04-28 16:51 | 29.85229 | -8.57618 | 37981 ft | 461 kts | 7° |
| 2026-04-28 16:52 | 29.91466 | -8.55964 | 37985 ft | 461 kts | 7° |
| 2026-04-28 16:52 | 29.97713 | -8.54308 | 38006 ft | 462 kts | 7° |
| 2026-04-28 16:53 | 30.04036 | -8.52629 | 38008 ft | 463 kts | 7° |
| 2026-04-28 16:53 | 30.10311 | -8.50960 | 38008 ft | 463 kts | 7° |
| 2026-04-28 16:54 | 30.16630 | -8.49277 | 38001 ft | 463 kts | 7° |
| 2026-04-28 16:54 | 30.22892 | -8.47605 | 38009 ft | 462 kts | 7° |
| 2026-04-28 16:55 | 30.29195 | -8.45922 | 38016 ft | 463 kts | 7° |
| 2026-04-28 16:55 | 30.35459 | -8.44248 | 38010 ft | 462 kts | 7° |
| 2026-04-28 16:56 | 30.41739 | -8.42569 | 38014 ft | 462 kts | 7° |
| 2026-04-28 16:56 | 30.48026 | -8.40883 | 37999 ft | 462 kts | 7° |
| 2026-04-28 16:57 | 30.54319 | -8.39193 | 37994 ft | 463 kts | 7° |
| 2026-04-28 16:57 | 30.60555 | -8.37518 | 38009 ft | 463 kts | 7° |
| 2026-04-28 16:58 | 30.66871 | -8.35831 | 38006 ft | 463 kts | 7° |
| 2026-04-28 16:58 | 30.73154 | -8.34150 | 38017 ft | 462 kts | 8° |
| 2026-04-28 16:59 | 30.79444 | -8.32466 | 38031 ft | 464 kts | 8° |
| 2026-04-28 16:59 | 30.85730 | -8.30778 | 38053 ft | 463 kts | 8° |
| 2026-04-28 17:00 | 30.92035 | -8.29083 | 38079 ft | 465 kts | 7° |
| 2026-04-28 17:00 | 30.98351 | -8.27383 | 38096 ft | 464 kts | 8° |
| 2026-04-28 17:01 | 31.04652 | -8.25682 | 38089 ft | 462 kts | 8° |
| 2026-04-28 17:01 | 31.10943 | -8.23986 | 38084 ft | 464 kts | 8° |
| 2026-04-28 17:02 | 31.17219 | -8.22288 | 38064 ft | 461 kts | 8° |
| 2026-04-28 17:02 | 31.23466 | -8.20597 | 38041 ft | 463 kts | 7° |
| 2026-04-28 17:03 | 31.32884 | -8.18042 | 38008 ft | 461 kts | 8° |
| 2026-04-28 17:03 | 31.39115 | -8.16352 | 37981 ft | 461 kts | 8° |
| 2026-04-28 17:04 | 31.48492 | -8.13805 | 37957 ft | 461 kts | 8° |
| 2026-04-28 17:05 | 31.57875 | -8.11328 | 37930 ft | 455 kts | 5° |
| 2026-04-28 17:06 | 31.67086 | -8.11274 | 37304 ft | 430 kts | 346° |
| 2026-04-28 17:06 | 31.70066 | -8.11807 | 36789 ft | 430 kts | 346° |
| 2026-04-28 17:06 | 31.75981 | -8.12938 | 35523 ft | 431 kts | 346° |
| 2026-04-28 17:07 | 31.78900 | -8.13490 | 34815 ft | 432 kts | 346° |
| 2026-04-28 17:07 | 31.81905 | -8.14053 | 34062 ft | 435 kts | 346° |
| 2026-04-28 17:07 | 31.84887 | -8.14609 | 33385 ft | 436 kts | 347° |
| 2026-04-28 17:07 | 31.87861 | -8.15159 | 32876 ft | 433 kts | 347° |
| 2026-04-28 17:08 | 31.90864 | -8.15713 | 32322 ft | 431 kts | 347° |
| 2026-04-28 17:08 | 31.93807 | -8.16256 | 31767 ft | 429 kts | 347° |
| 2026-04-28 17:08 | 31.96748 | -8.16799 | 31208 ft | 427 kts | 347° |
| 2026-04-28 17:08 | 31.99701 | -8.17344 | 30650 ft | 425 kts | 348° |
| 2026-04-28 17:09 | 32.02622 | -8.17883 | 30086 ft | 423 kts | 348° |
| 2026-04-28 17:09 | 32.05485 | -8.18412 | 29492 ft | 418 kts | 348° |
| 2026-04-28 17:09 | 32.08348 | -8.18919 | 28945 ft | 413 kts | 349° |
| 2026-04-28 17:09 | 32.11185 | -8.19280 | 28403 ft | 410 kts | 353° |
| 2026-04-28 17:10 | 32.14047 | -8.19308 | 27852 ft | 410 kts | 0° |
| 2026-04-28 17:10 | 32.16889 | -8.18999 | 27315 ft | 408 kts | 4° |
| 2026-04-28 17:10 | 32.19680 | -8.18572 | 26780 ft | 405 kts | 5° |
| 2026-04-28 17:10 | 32.22446 | -8.18119 | 26252 ft | 403 kts | 5° |
| 2026-04-28 17:11 | 32.25228 | -8.17659 | 25721 ft | 400 kts | 5° |
| 2026-04-28 17:11 | 32.27965 | -8.17209 | 25197 ft | 397 kts | 5° |
| 2026-04-28 17:11 | 32.30703 | -8.16761 | 24663 ft | 394 kts | 5° |
| 2026-04-28 17:11 | 32.33411 | -8.16319 | 24134 ft | 391 kts | 5° |
| 2026-04-28 17:12 | 32.36127 | -8.15876 | 23611 ft | 388 kts | 5° |
| 2026-04-28 17:12 | 32.38790 | -8.15442 | 23096 ft | 386 kts | 5° |
| 2026-04-28 17:12 | 32.41424 | -8.15013 | 22588 ft | 383 kts | 5° |
| 2026-04-28 17:12 | 32.44046 | -8.14585 | 22083 ft | 380 kts | 5° |
| 2026-04-28 17:13 | 32.46654 | -8.14073 | 21479 ft | 381 kts | 13° |
| 2026-04-28 17:13 | 32.49045 | -8.12691 | 20766 ft | 381 kts | 37° |
| 2026-04-28 17:13 | 32.51060 | -8.10697 | 20074 ft | 379 kts | 40° |
| 2026-04-28 17:13 | 32.53065 | -8.08679 | 19408 ft | 375 kts | 39° |
| 2026-04-28 17:14 | 32.55044 | -8.06714 | 18757 ft | 371 kts | 39° |
| 2026-04-28 17:14 | 32.57012 | -8.04768 | 18086 ft | 368 kts | 39° |
| 2026-04-28 17:14 | 32.58963 | -8.02840 | 17426 ft | 365 kts | 40° |
| 2026-04-28 17:14 | 32.60888 | -8.00938 | 16831 ft | 361 kts | 40° |
| 2026-04-28 17:15 | 32.62818 | -7.99033 | 16224 ft | 357 kts | 40° |
| 2026-04-28 17:15 | 32.64710 | -7.97167 | 15593 ft | 353 kts | 40° |
| 2026-04-28 17:15 | 32.66586 | -7.95316 | 14993 ft | 350 kts | 40° |
| 2026-04-28 17:15 | 32.68447 | -7.93478 | 14399 ft | 346 kts | 40° |
| 2026-04-28 17:16 | 32.70282 | -7.91666 | 13783 ft | 342 kts | 41° |
| 2026-04-28 17:16 | 32.72111 | -7.89858 | 13204 ft | 338 kts | 41° |
| 2026-04-28 17:16 | 32.73895 | -7.88095 | 12623 ft | 334 kts | 40° |
| 2026-04-28 17:16 | 32.75674 | -7.86335 | 12073 ft | 329 kts | 40° |
| 2026-04-28 17:17 | 32.77414 | -7.84613 | 11632 ft | 326 kts | 40° |
| 2026-04-28 17:17 | 32.79179 | -7.82864 | 11203 ft | 323 kts | 40° |
| 2026-04-28 17:17 | 32.80886 | -7.81172 | 10724 ft | 321 kts | 40° |
| 2026-04-28 17:17 | 32.82607 | -7.79467 | 10363 ft | 313 kts | 40° |
| 2026-04-28 17:18 | 32.84250 | -7.77837 | 10161 ft | 301 kts | 40° |
| 2026-04-28 17:18 | 32.85848 | -7.76251 | 9772 ft | 298 kts | 40° |
| 2026-04-28 17:18 | 32.87429 | -7.74681 | 9306 ft | 295 kts | 40° |
| 2026-04-28 17:18 | 32.88985 | -7.73136 | 8938 ft | 289 kts | 40° |
| 2026-04-28 17:19 | 32.90518 | -7.71612 | 8585 ft | 282 kts | 39° |
| 2026-04-28 17:19 | 32.92000 | -7.70138 | 8246 ft | 276 kts | 39° |
| 2026-04-28 17:19 | 32.93471 | -7.68675 | 7895 ft | 274 kts | 39° |
| 2026-04-28 17:19 | 32.94923 | -7.67230 | 7560 ft | 272 kts | 39° |
| 2026-04-28 17:20 | 32.96379 | -7.65780 | 7226 ft | 271 kts | 39° |
| 2026-04-28 17:20 | 32.97345 | -7.64818 | 6991 ft | 270 kts | 39° |
| 2026-04-28 17:20 | 32.99258 | -7.62913 | 6551 ft | 267 kts | 39° |
| 2026-04-28 17:20 | 33.00677 | -7.61497 | 6221 ft | 266 kts | 39° |
| 2026-04-28 17:21 | 33.02092 | -7.60086 | 5886 ft | 264 kts | 39° |
| 2026-04-28 17:21 | 33.03497 | -7.58687 | 5558 ft | 262 kts | 39° |
| 2026-04-28 17:21 | 33.04895 | -7.57291 | 5247 ft | 258 kts | 38° |
| 2026-04-28 17:22 | 33.07547 | -7.54642 | 5077 ft | 241 kts | 38° |
| 2026-04-28 17:22 | 33.08834 | -7.53355 | 5002 ft | 242 kts | 39° |
| 2026-04-28 17:22 | 33.10126 | -7.52068 | 4865 ft | 244 kts | 37° |
| 2026-04-28 17:23 | 33.13189 | -7.51116 | 4485 ft | 227 kts | 342° |
| 2026-04-28 17:23 | 33.14673 | -7.51736 | 4342 ft | 223 kts | 341° |
| 2026-04-28 17:23 | 33.16170 | -7.52232 | 4160 ft | 222 kts | 343° |
| 2026-04-28 17:23 | 33.17669 | -7.52731 | 3941 ft | 221 kts | 342° |
| 2026-04-28 17:24 | 33.19125 | -7.53231 | 3772 ft | 215 kts | 342° |
| 2026-04-28 17:24 | 33.20517 | -7.53698 | 3679 ft | 201 kts | 342° |
| 2026-04-28 17:24 | 33.21869 | -7.54159 | 3340 ft | 202 kts | 342° |
| 2026-04-28 17:24 | 33.23223 | -7.54617 | 3059 ft | 199 kts | 342° |
| 2026-04-28 17:25 | 33.24542 | -7.55064 | 2790 ft | 195 kts | 342° |
| 2026-04-28 17:25 | 33.27042 | -7.55913 | 2285 ft | 174 kts | 342° |
| 2026-04-28 17:25 | 33.28152 | -7.56290 | 2069 ft | 159 kts | 342° |
| 2026-04-28 17:26 | 33.29166 | -7.56634 | 1890 ft | 143 kts | 342° |
| 2026-04-28 17:26 | 33.30117 | -7.56957 | 1659 ft | 138 kts | 342° |
| 2026-04-28 17:26 | 33.31035 | -7.57269 | 1499 ft | 138 kts | 341° |
| 2026-04-28 17:26 | 33.31979 | -7.57589 | 1325 ft | 140 kts | 343° |
| 2026-04-28 17:27 | 33.32928 | -7.57897 | 1129 ft | 141 kts | 343° |
| 2026-04-28 17:27 | 33.33873 | -7.58223 | 922 ft | 140 kts | 342° |
| 2026-04-28 17:27 | 33.34808 | -7.58546 | 750 ft | 139 kts | 343° |
| 2026-04-28 17:27 | 33.35725 | -7.58861 | 656 ft | 127 kts | 342° |
| 2026-04-28 17:28 | 33.36392 | -7.59088 | 650 ft | 69 kts | 343° |
| 2026-04-28 17:28 | 33.37132 | -7.59323 | 648 ft | 36 kts | 359° |
| 2026-04-28 17:28 | 33.37328 | -7.59288 | 648 ft | 21 kts | 13° |
| 2026-04-28 17:29 | 33.37472 | -7.59246 | 648 ft | 20 kts | 12° |
| 2026-04-28 17:29 | 33.37609 | -7.59209 | 648 ft | 19 kts | 11° |
| 2026-04-28 17:29 | 33.37727 | -7.59171 | 647 ft | 17 kts | 13° |
| 2026-04-28 17:30 | 33.37851 | -7.58951 | 644 ft | 16 kts | 73° |
| 2026-04-28 17:30 | 33.37908 | -7.58667 | 645 ft | 16 kts | 107° |
| 2026-04-28 17:30 | 33.37846 | -7.58558 | 645 ft | 15 kts | 128° |
| 2026-04-28 17:31 | 33.37756 | -7.58476 | 645 ft | 16 kts | 164° |
| 2026-04-28 17:31 | 33.37533 | -7.58416 | 647 ft | 14 kts | 164° |
| 2026-04-28 17:32 | 33.37333 | -7.58349 | 648 ft | 13 kts | 165° |
| 2026-04-28 17:32 | 33.37290 | -7.58327 | 648 ft | 5 kts | 117° |
| 2026-04-28 17:32 | 33.37299 | -7.58281 | 648 ft | 5 kts | 64° |
| 2026-04-28 17:32 | 33.37312 | -7.58249 | 649 ft | 2 kts | 62° |
| 2026-04-28 17:33 | 33.37316 | -7.58242 | 649 ft | 0 kts | 62° |